Terminal Aerodrome Forecast
Issued by NWS Austin/San Antonio, TX

Home | Current Version | Previous Version | Text Only | Print | Product List | Glossary On
Versions: 1 2 3 4 5 6 7 8 9 10 11 12 13 14 15 16 17 18 19 20 21 22 23 24 25 26
000
FTUS44 KEWX 212300
TAFSAT
TAF
KSAT 212338Z 2200/2306 20007KT P6SM OVC010
     FM220600 19005KT 5SM BR OVC008
     FM220900 21005KT 1SM -DZ BR OVC004
     FM221600 24008KT 5SM BR OVC008
     FM221800 26009KT P6SM FEW015 SCT250
     FM230000 VRB03KT P6SM BKN250=

USA.gov is the U.S. government's official web portal to all federal, state and local government web resources and services.